createdAt,value
2018-07-10T00:06:50.710Z,2.90
2018-07-10T00:11:54.568Z,4.50
2018-07-10T00:16:58.317Z,3.10
2018-07-10T00:22:01.982Z,3.37
2018-07-10T00:27:05.485Z,4.20
2018-07-10T00:32:09.034Z,3.33
2018-07-10T00:37:13.219Z,2.77
2018-07-10T00:42:16.968Z,3.37
2018-07-10T00:47:20.670Z,4.10
2018-07-10T00:52:30.638Z,3.33
2018-07-10T00:57:34.330Z,2.77
2018-07-10T01:02:37.966Z,7.13
2018-07-10T01:07:41.855Z,6.27
2018-07-10T01:12:45.907Z,3.90
2018-07-10T01:17:49.969Z,4.00
2018-07-10T01:22:54.225Z,3.80
2018-07-10T01:27:57.841Z,3.70
2018-07-10T01:33:01.569Z,3.73
2018-07-10T01:38:05.421Z,3.43
2018-07-10T01:43:09.720Z,3.47
2018-07-10T01:48:13.617Z,2.67
2018-07-10T01:53:17.265Z,4.23
2018-07-10T01:58:21.947Z,3.13
2018-07-10T02:03:25.957Z,2.83
2018-07-10T02:08:29.711Z,3.47
2018-07-10T02:13:34.159Z,3.53
2018-07-10T02:18:37.804Z,4.03
2018-07-10T02:23:44.385Z,4.03
2018-07-10T02:28:49.005Z,3.10
2018-07-10T02:33:53.065Z,3.20
2018-07-10T02:38:57.917Z,3.00
2018-07-10T02:44:03.296Z,2.60
2018-07-10T02:49:18.414Z,3.87
2018-07-10T02:54:23.436Z,4.07
2018-07-10T02:59:31.432Z,3.47
2018-07-10T03:04:35.860Z,3.17
2018-07-10T03:09:40.068Z,2.93
2018-07-10T03:14:44.811Z,3.70
2018-07-10T03:19:50.014Z,3.77
2018-07-10T03:24:53.561Z,2.80
2018-07-10T03:29:58.899Z,4.67
2018-07-10T03:35:02.145Z,3.90
2018-07-10T03:40:06.228Z,6.37
2018-07-10T03:45:10.193Z,4.80
2018-07-10T03:50:14.204Z,4.37
2018-07-10T03:55:18.235Z,2.90
2018-07-10T04:00:22.631Z,3.27
2018-07-10T04:05:26.460Z,4.00
2018-07-10T04:10:35.525Z,5.97
2018-07-10T04:15:39.581Z,5.60
2018-07-10T04:20:54.054Z,3.90
2018-07-10T04:25:58.065Z,5.07
2018-07-10T04:31:46.372Z,4.97
2018-07-10T04:36:50.762Z,6.40
2018-07-10T04:42:04.037Z,6.27
2018-07-10T04:47:15.420Z,5.83
2018-07-10T04:52:27.595Z,3.30
2018-07-10T04:57:35.026Z,3.37
2018-07-10T05:02:39.017Z,4.30
2018-07-10T05:07:42.883Z,3.23
2018-07-10T05:12:46.541Z,3.37
2018-07-10T05:17:52.186Z,5.03
2018-07-10T05:22:56.125Z,5.00
2018-07-10T05:28:00.033Z,4.10
2018-07-10T05:33:03.681Z,4.40
2018-07-10T05:38:07.002Z,4.07
2018-07-10T05:43:15.454Z,3.67
2018-07-10T05:48:19.535Z,5.23
2018-07-10T05:53:22.962Z,3.47
2018-07-10T05:58:26.394Z,4.00
2018-07-10T06:03:29.682Z,4.90
2018-07-10T06:08:33.249Z,3.80
2018-07-10T06:13:36.542Z,3.37
2018-07-10T06:18:39.922Z,4.00
2018-07-10T06:23:44.436Z,3.03
2018-07-10T06:28:56.449Z,3.97
2018-07-10T06:34:04.474Z,4.13
2018-07-10T06:39:12.789Z,3.60
2018-07-10T06:44:17.794Z,4.37
2018-07-10T06:49:28.265Z,3.67
2018-07-10T06:54:33.976Z,3.70
2018-07-10T06:59:38.166Z,3.57
2018-07-10T07:04:41.534Z,3.30
2018-07-10T07:09:44.835Z,3.70
2018-07-10T07:14:48.218Z,4.13
2018-07-10T07:19:52.258Z,2.90
2018-07-10T07:24:55.747Z,3.50
2018-07-10T07:29:59.288Z,3.47
2018-07-10T07:35:02.774Z,4.10
2018-07-10T07:40:06.102Z,3.17
2018-07-10T07:45:09.537Z,2.87
2018-07-10T07:50:12.892Z,2.57
2018-07-10T07:55:16.302Z,3.63
2018-07-10T08:00:19.517Z,2.10
2018-07-10T08:05:22.899Z,2.73
2018-07-10T08:10:27.366Z,3.37
2018-07-10T08:15:31.191Z,2.70
2018-07-10T08:20:34.549Z,2.70
2018-07-10T08:25:37.902Z,3.10
2018-07-10T08:30:41.216Z,3.07
2018-07-10T08:35:44.762Z,2.87
2018-07-10T08:40:48.187Z,2.20
2018-07-10T08:45:51.541Z,2.50
2018-07-10T08:50:54.897Z,2.00
2018-07-10T08:55:58.202Z,2.30
2018-07-10T09:01:03.898Z,1.93
2018-07-10T09:06:15.063Z,2.00
2018-07-10T09:11:18.985Z,1.83
2018-07-10T09:16:22.300Z,2.07
2018-07-10T09:21:25.791Z,1.70
2018-07-10T09:26:29.141Z,1.23
2018-07-10T09:31:33.914Z,2.20
2018-07-10T09:36:37.251Z,1.80
2018-07-10T09:41:40.618Z,1.80
2018-07-10T09:46:44.002Z,2.03
2018-07-10T09:51:47.310Z,1.70
2018-07-10T09:56:50.641Z,1.30
2018-07-10T10:01:59.653Z,1.60
2018-07-10T10:07:03.162Z,2.47
2018-07-10T10:12:06.424Z,1.97
2018-07-10T10:17:09.943Z,1.50
2018-07-10T10:22:13.336Z,1.67
2018-07-10T10:27:16.971Z,2.10
2018-07-10T10:32:20.560Z,1.90
2018-07-10T10:37:24.247Z,1.90
2018-07-10T10:42:27.891Z,1.97
2018-07-10T10:47:32.371Z,1.83
2018-07-10T10:52:35.714Z,1.23
2018-07-10T10:57:40.078Z,1.57
2018-07-10T11:02:43.395Z,1.77
2018-07-10T11:07:46.983Z,2.00
2018-07-10T11:12:50.847Z,1.57
2018-07-10T11:18:07.990Z,1.30
2018-07-10T11:23:17.262Z,1.50
2018-07-10T11:28:20.903Z,2.47
2018-07-10T11:33:26.906Z,1.90
2018-07-10T11:38:30.514Z,2.00
2018-07-10T11:43:33.797Z,1.70
2018-07-10T11:48:37.272Z,2.20
2018-07-10T11:53:48.903Z,1.97
2018-07-10T11:58:52.725Z,1.80
2018-07-10T12:03:56.157Z,1.60
2018-07-10T12:09:01.143Z,2.00
2018-07-10T12:14:04.756Z,2.20
2018-07-10T12:19:08.383Z,1.67
2018-07-10T12:24:12.289Z,1.60
2018-07-10T12:29:15.599Z,2.03
2018-07-10T12:34:18.933Z,2.27
2018-07-10T12:39:22.730Z,1.87
2018-07-10T12:44:26.142Z,2.00
2018-07-10T12:49:29.523Z,1.80
2018-07-10T12:54:32.948Z,2.40
2018-07-10T12:59:36.390Z,2.70
2018-07-10T13:04:39.905Z,1.90
2018-07-10T13:09:43.194Z,2.37
2018-07-10T13:14:46.574Z,2.30
2018-07-10T13:19:51.391Z,1.80
2018-07-10T13:24:54.817Z,1.90
2018-07-10T13:29:58.251Z,1.70
2018-07-10T13:35:01.634Z,1.87
2018-07-10T13:40:05.833Z,2.10
2018-07-10T13:45:09.490Z,1.80
2018-07-10T13:50:14.231Z,1.77
2018-07-10T13:55:17.848Z,2.33
2018-07-10T14:00:21.317Z,2.47
2018-07-10T14:05:25.290Z,2.13
2018-07-10T14:10:29.255Z,2.37
2018-07-10T14:15:35.024Z,1.50
2018-07-10T14:20:43.226Z,2.50
2018-07-10T14:25:52.662Z,2.10
2018-07-10T14:30:56.374Z,2.00
2018-07-10T14:35:59.919Z,1.93
2018-07-10T14:41:06.298Z,2.27
2018-07-10T14:46:13.345Z,2.83
2018-07-10T14:51:25.760Z,2.60
2018-07-10T14:56:29.478Z,2.20
2018-07-10T15:01:33.066Z,2.57
2018-07-10T15:06:38.622Z,3.30
2018-07-10T15:11:47.465Z,2.30
2018-07-10T15:16:56.766Z,3.03
2018-07-10T15:22:00.631Z,3.07
2018-07-10T15:27:04.205Z,2.63
2018-07-10T15:32:07.593Z,2.70
2018-07-10T15:37:11.060Z,2.13
2018-07-10T15:42:15.264Z,2.73
2018-07-10T15:47:18.905Z,2.80
2018-07-10T15:52:22.949Z,3.10
2018-07-10T15:57:26.855Z,2.27
2018-07-10T16:02:30.710Z,2.33
2018-07-10T16:07:34.200Z,2.57
2018-07-10T16:12:38.239Z,1.67
2018-07-10T16:17:41.910Z,2.40
2018-07-10T16:22:45.384Z,1.57
2018-07-10T16:27:48.997Z,2.00
2018-07-10T16:32:52.541Z,2.40
2018-07-10T16:37:56.930Z,2.23
2018-07-10T16:43:00.620Z,2.30
2018-07-10T16:48:22.509Z,2.50
2018-07-10T16:53:30.152Z,2.33
2018-07-10T16:58:36.734Z,2.63
2018-07-10T17:03:40.173Z,2.30
2018-07-10T17:25:55.375Z,2.43
2018-07-10T17:31:09.867Z,2.10
2018-07-10T17:36:37.279Z,2.40
2018-07-10T17:52:45.193Z,3.07
2018-07-10T17:58:09.894Z,2.23
2018-07-10T18:29:36.318Z,3.90
2018-07-10T18:34:47.005Z,4.03
2018-07-10T18:40:02.955Z,3.30
2018-07-10T18:45:16.663Z,2.50
2018-07-10T18:50:44.220Z,3.00
2018-07-10T19:02:07.410Z,3.87
2018-07-10T19:07:27.732Z,2.77
2018-07-10T19:34:47.308Z,3.17
2018-07-10T19:40:51.516Z,3.20
2018-07-10T19:46:09.380Z,3.27
2018-07-10T20:24:36.883Z,3.63
2018-07-10T20:31:54.439Z,3.47
2018-07-10T20:44:37.939Z,4.80
2018-07-10T20:49:47.899Z,5.17
2018-07-10T20:54:58.986Z,5.23
2018-07-10T21:00:07.260Z,4.90
2018-07-10T21:05:15.205Z,4.40
2018-07-10T21:10:41.780Z,4.70
2018-07-10T21:15:56.610Z,3.90
2018-07-10T21:21:27.920Z,4.30
2018-07-10T21:26:54.691Z,3.83
2018-07-10T21:32:03.508Z,4.10
2018-07-10T21:37:24.328Z,5.07
2018-07-10T21:42:36.231Z,3.83
2018-07-10T21:48:25.537Z,3.83
2018-07-10T21:53:29.635Z,4.33
2018-07-10T21:58:35.062Z,5.00
2018-07-10T22:03:38.955Z,4.60
2018-07-10T22:08:43.192Z,5.23
2018-07-10T22:13:46.847Z,4.97
2018-07-10T22:18:55.955Z,3.90
2018-07-10T22:23:59.747Z,3.70
2018-07-10T22:29:04.602Z,4.60
2018-07-10T22:34:08.466Z,4.27
2018-07-10T22:39:12.468Z,3.60
2018-07-10T22:44:27.495Z,5.00
2018-07-10T22:49:38.898Z,5.10
2018-07-10T22:54:55.826Z,4.10
2018-07-10T23:00:08.265Z,5.37
2018-07-10T23:05:22.407Z,4.17
2018-07-10T23:10:28.240Z,6.10
2018-07-10T23:15:37.185Z,5.93
2018-07-10T23:20:46.660Z,5.70
2018-07-10T23:25:54.560Z,4.90
2018-07-10T23:31:01.564Z,4.70
2018-07-10T23:36:06.251Z,4.70
2018-07-10T23:41:24.759Z,5.13
2018-07-10T23:46:33.295Z,5.80
2018-07-10T23:51:47.931Z,4.80
2018-07-10T23:56:51.819Z,4.80
